メインページ
METAR-TAF:

METAR-TAF

空港 :

ナッソー, バハマ

リンデン・ピンドリング国際空港

緯度: 25-03N, 経度: 077-28W, 海抜: 3m

現時点の気象観測

当レポートは1時間5分前の10:00(UTC)に作成
無風
気温 25°C
湿度 83%
気圧 1015 hPa
視程10km以上
高度2000ftの雲はほとんどない

METAR: MYNN 201000Z 00000KT 9999 FEW020 25/22 A2996

時間: 07:05 (11:05 UTC)

予報

当レポートは6時間5分前の05:00(UTC)に作成
予報は20日の 06時(UTC)から 21日の 06時(UTC)まで有効
の風 kt
視程10km以上
高度2000ftの雲はほとんどない
20日の 12時(UTC)から 20日の 14時(UTC)まで徐々に
高度1600ftの雲は散在している, 積乱雲.
高度20000ftの千切れ雲あり
確率 30% :
20日の 18時(UTC)から 20日の 22時(UTC)まで一時的に
の風 8kt
視程: 8000m
にわか雨

TAF: MYNN 200500Z 2006/2106 00000KT 9999 FEW020 BECMG 2012/2014 SCT016CB BKN200 PROB30 TEMPO 2018/2022 08008KT 8000 SHRA

4,000以上の空港の気象観測と天気予報(METAR報とTAF報)

利用可能な観測所は地図上に黄色い丸と赤い丸で示す。

丸の上にカーソルを重ねると観測所名を参照できる。

次にクリックすると気象観測と天気予報を参照できる。

マップの切り替え:黒色「×」印の緑ボタンをクリックして拡大、「-」印の緑ボタンをクリックして縮小、緑色の三角印をクリックして隣りの地図に切り替え


METAR-TAF: